createdAt,value
2022-09-28T00:01:25.473Z,99689.00
2022-09-28T00:03:53.430Z,99678.00
2022-09-28T00:06:21.638Z,99688.00
2022-09-28T00:08:52.492Z,99703.00
2022-09-28T00:11:20.822Z,99683.00
2022-09-28T00:13:56.527Z,99677.00
2022-09-28T00:16:24.571Z,99681.00
2022-09-28T00:18:51.590Z,99686.00
2022-09-28T00:21:22.290Z,99674.00
2022-09-28T00:24:09.768Z,99681.00
2022-09-28T00:26:36.362Z,99688.00
2022-09-28T00:29:02.818Z,99682.00
2022-09-28T00:31:31.761Z,99678.00
2022-09-28T00:34:00.178Z,99677.00
2022-09-28T00:36:28.187Z,99684.00
2022-09-28T00:38:56.509Z,99682.00
2022-09-28T00:41:23.828Z,99687.00
2022-09-28T00:43:50.382Z,99688.00
2022-09-28T00:46:33.410Z,99689.00
2022-09-28T00:49:04.944Z,99691.00
2022-09-28T00:51:31.923Z,99691.00
2022-09-28T00:53:59.489Z,99700.00
2022-09-28T00:56:28.942Z,99689.00
2022-09-28T00:58:55.907Z,99685.00
2022-09-28T01:01:22.518Z,99685.00
2022-09-28T01:03:49.096Z,99691.00
2022-09-28T01:06:18.562Z,99684.00
2022-09-28T01:08:45.981Z,99686.00
2022-09-28T01:11:12.452Z,99681.00
2022-09-28T01:13:40.388Z,99681.00
2022-09-28T01:16:08.162Z,99678.00
2022-09-28T01:18:40.699Z,99679.00
2022-09-28T01:21:07.213Z,99675.00
2022-09-28T01:23:54.468Z,99678.00
2022-09-28T01:26:23.875Z,99681.00
2022-09-28T01:28:54.437Z,99688.00
2022-09-28T01:31:21.469Z,99688.00
2022-09-28T01:34:08.147Z,99688.00
2022-09-28T01:36:40.267Z,99691.00
2022-09-28T01:39:10.852Z,99703.00
2022-09-28T01:41:40.238Z,99714.00
2022-09-28T01:44:09.058Z,99704.00
2022-09-28T01:46:42.100Z,99710.00
2022-09-28T01:49:10.734Z,99718.00
2022-09-28T01:51:37.223Z,99712.00
2022-09-28T01:54:09.231Z,99698.00
2022-09-28T01:56:55.883Z,99709.00
2022-09-28T01:59:24.914Z,99699.00
2022-09-28T02:02:14.991Z,99701.00
2022-09-28T02:04:50.991Z,99703.00
2022-09-28T02:07:19.605Z,99703.00
2022-09-28T02:09:48.613Z,99693.00
2022-09-28T02:12:18.879Z,99707.00
2022-09-28T02:14:48.009Z,99697.00
2022-09-28T02:17:16.311Z,99698.00
2022-09-28T02:19:43.100Z,99708.00
2022-09-28T02:22:09.541Z,99701.00
2022-09-28T02:24:38.216Z,99703.00
2022-09-28T02:27:09.646Z,99698.00
2022-09-28T02:29:36.120Z,99702.00
2022-09-28T02:32:02.585Z,99702.00
2022-09-28T02:34:29.079Z,99705.00
2022-09-28T02:36:55.641Z,99708.00
2022-09-28T02:39:22.467Z,99712.00
2022-09-28T02:41:58.041Z,99708.00
2022-09-28T02:44:35.198Z,99701.00
2022-09-28T02:47:09.811Z,99699.00
2022-09-28T02:49:39.898Z,99706.00
2022-09-28T02:52:15.333Z,99705.00
2022-09-28T02:54:57.029Z,99693.00
2022-09-28T02:57:42.333Z,99697.00
2022-09-28T03:00:12.061Z,99704.00
2022-09-28T03:02:38.474Z,99713.00
2022-09-28T03:05:11.199Z,99713.00
2022-09-28T03:07:44.881Z,99710.00
2022-09-28T03:10:11.423Z,99721.00
2022-09-28T03:12:38.335Z,99715.00
2022-09-28T03:15:13.318Z,99718.00
2022-09-28T03:17:39.814Z,99708.00
2022-09-28T03:20:06.693Z,99714.00
2022-09-28T03:22:33.111Z,99712.00
2022-09-28T03:24:59.548Z,99709.00
2022-09-28T03:27:25.956Z,99721.00
2022-09-28T03:29:52.363Z,99730.00
2022-09-28T03:32:18.783Z,99716.00
2022-09-28T03:34:45.233Z,99724.00
2022-09-28T03:37:11.717Z,99716.00
2022-09-28T03:39:38.149Z,99715.00
2022-09-28T03:42:04.584Z,99716.00
2022-09-28T03:44:31.107Z,99711.00
2022-09-28T03:46:57.690Z,99725.00
2022-09-28T03:49:24.280Z,99716.00
2022-09-28T03:51:50.716Z,99710.00
2022-09-28T03:54:17.205Z,99712.00
2022-09-28T03:56:43.599Z,99726.00
2022-09-28T03:59:10.155Z,99723.00
2022-09-28T04:01:36.869Z,99716.00
2022-09-28T04:04:03.423Z,99720.00
2022-09-28T04:06:29.877Z,99724.00
2022-09-28T04:08:56.319Z,99731.00
2022-09-28T04:11:24.121Z,99738.00
2022-09-28T04:13:50.669Z,99733.00
2022-09-28T04:16:18.579Z,99731.00
2022-09-28T04:18:45.116Z,99739.00
2022-09-28T04:21:12.258Z,99724.00
2022-09-28T04:23:39.675Z,99739.00
2022-09-28T04:26:07.271Z,99747.00
2022-09-28T04:28:52.065Z,99743.00
2022-09-28T04:31:19.535Z,99751.00
2022-09-28T04:33:46.569Z,99746.00
2022-09-28T04:36:13.474Z,99742.00
2022-09-28T04:38:56.031Z,99739.00
2022-09-28T04:41:22.698Z,99730.00
2022-09-28T04:43:50.090Z,99727.00
2022-09-28T04:46:16.954Z,99727.00
2022-09-28T04:48:43.495Z,99727.00
2022-09-28T04:51:09.966Z,99721.00
2022-09-28T04:53:36.714Z,99722.00
2022-09-28T04:56:05.219Z,99725.00
2022-09-28T04:58:31.728Z,99726.00
2022-09-28T05:00:59.577Z,99722.00
2022-09-28T05:03:26.431Z,99730.00
2022-09-28T05:05:52.909Z,99723.00
2022-09-28T05:08:19.382Z,99725.00
2022-09-28T05:10:46.027Z,99720.00
2022-09-28T05:13:12.996Z,99723.00
2022-09-28T05:15:40.227Z,99720.00
2022-09-28T05:18:07.333Z,99724.00
2022-09-28T05:20:34.439Z,99718.00
2022-09-28T05:23:00.918Z,99713.00
2022-09-28T05:25:27.454Z,99711.00
2022-09-28T05:27:57.357Z,99715.00
2022-09-28T05:30:24.218Z,99712.00
2022-09-28T05:32:51.110Z,99714.00
2022-09-28T05:35:17.673Z,99702.00
2022-09-28T05:37:44.195Z,99708.00
2022-09-28T05:40:11.049Z,99714.00
2022-09-28T05:42:37.489Z,99709.00
2022-09-28T05:45:04.102Z,99713.00
2022-09-28T05:47:30.529Z,99711.00
2022-09-28T05:49:56.977Z,99710.00
2022-09-28T05:52:23.430Z,99710.00
2022-09-28T05:54:49.857Z,99712.00
2022-09-28T05:57:16.347Z,99716.00
2022-09-28T05:59:42.913Z,99717.00
2022-09-28T06:02:10.211Z,99716.00
2022-09-28T06:04:36.841Z,99720.00
2022-09-28T06:07:03.285Z,99722.00
2022-09-28T06:09:30.352Z,99725.00
2022-09-28T06:11:58.211Z,99722.00
2022-09-28T06:14:24.876Z,99731.00
2022-09-28T06:16:51.508Z,99727.00
2022-09-28T06:19:18.298Z,99727.00
2022-09-28T06:21:44.712Z,99736.00
2022-09-28T06:24:11.163Z,99736.00
2022-09-28T06:26:37.841Z,99733.00
2022-09-28T06:29:04.292Z,99734.00
2022-09-28T06:31:31.319Z,99739.00
2022-09-28T06:33:57.768Z,99745.00
2022-09-28T06:36:24.272Z,99746.00
2022-09-28T06:38:50.714Z,99751.00
2022-09-28T06:41:17.163Z,99744.00
2022-09-28T06:43:43.620Z,99755.00
2022-09-28T06:46:10.275Z,99759.00
2022-09-28T06:48:37.734Z,99753.00
2022-09-28T06:51:04.667Z,99762.00
2022-09-28T06:53:31.551Z,99764.00
2022-09-28T06:55:58.122Z,99766.00
2022-09-28T06:58:26.499Z,99775.00
2022-09-28T07:00:53.250Z,99775.00
2022-09-28T07:03:21.588Z,99777.00
2022-09-28T07:05:52.640Z,99784.00
2022-09-28T07:08:20.257Z,99779.00
2022-09-28T07:10:48.119Z,99780.00
2022-09-28T07:13:39.388Z,99779.00
2022-09-28T07:16:01.928Z,99782.00
2022-09-28T07:18:29.901Z,99783.00
2022-09-28T07:20:59.960Z,99788.00
2022-09-28T07:23:34.093Z,99788.00
2022-09-28T07:26:06.591Z,99788.00
2022-09-28T07:28:34.263Z,99796.00
2022-09-28T07:31:03.478Z,99784.00
2022-09-28T07:33:32.950Z,99793.00
2022-09-28T07:36:00.843Z,99800.00
2022-09-28T07:38:27.350Z,99801.00
2022-09-28T07:41:12.261Z,99801.00
2022-09-28T07:43:41.622Z,99802.00
2022-09-28T07:46:11.966Z,99804.00
2022-09-28T07:48:42.375Z,99805.00
2022-09-28T07:51:09.270Z,99807.00
2022-09-28T07:53:35.735Z,99810.00
2022-09-28T07:56:09.700Z,99813.00
2022-09-28T07:58:36.975Z,99819.00
2022-09-28T08:01:05.205Z,99817.00
2022-09-28T08:03:31.734Z,99811.00
2022-09-28T08:05:58.962Z,99820.00
2022-09-28T08:08:25.517Z,99825.00
2022-09-28T08:10:53.161Z,99822.00
2022-09-28T08:13:22.257Z,99824.00
2022-09-28T08:15:51.828Z,99833.00
2022-09-28T08:18:18.447Z,99830.00
2022-09-28T08:21:03.678Z,99825.00
2022-09-28T08:23:30.313Z,99839.00
2022-09-28T08:25:56.807Z,99838.00
2022-09-28T08:28:24.143Z,99844.00
2022-09-28T08:30:50.836Z,99843.00
2022-09-28T08:33:18.066Z,99840.00
2022-09-28T08:35:45.999Z,99843.00
2022-09-28T08:38:13.627Z,99851.00
2022-09-28T08:40:58.856Z,99839.00
2022-09-28T08:43:41.633Z,99844.00
2022-09-28T08:46:09.922Z,99845.00
2022-09-28T08:48:56.976Z,99848.00
2022-09-28T08:51:42.379Z,99855.00
2022-09-28T08:54:28.215Z,99851.00
2022-09-28T08:56:59.184Z,99846.00
2022-09-28T08:59:27.650Z,99852.00
2022-09-28T09:02:14.428Z,99856.00
2022-09-28T09:04:40.878Z,99859.00
2022-09-28T09:07:07.368Z,99859.00
2022-09-28T09:09:44.426Z,99843.00
2022-09-28T09:12:20.115Z,99857.00
2022-09-28T09:14:53.060Z,99862.00
2022-09-28T09:17:38.806Z,99850.00
2022-09-28T09:20:14.586Z,99866.00
2022-09-28T09:22:48.080Z,99864.00
2022-09-28T09:25:18.357Z,99865.00
2022-09-28T09:27:54.845Z,99868.00
2022-09-28T09:30:29.616Z,99869.00
2022-09-28T09:33:00.552Z,99870.00
2022-09-28T09:35:37.488Z,99867.00
2022-09-28T09:38:09.450Z,99870.00
2022-09-28T09:40:35.889Z,99870.00
2022-09-28T09:43:02.295Z,99875.00
2022-09-28T09:45:39.849Z,99880.00
2022-09-28T09:48:27.504Z,99885.00
2022-09-28T09:50:57.711Z,99879.00
2022-09-28T09:53:24.202Z,99881.00
2022-09-28T09:55:54.860Z,99882.00
2022-09-28T09:58:25.117Z,99888.00
2022-09-28T10:00:52.879Z,99885.00
2022-09-28T10:03:28.227Z,99889.00
2022-09-28T10:06:03.485Z,99882.00
2022-09-28T10:08:33.441Z,99888.00
2022-09-28T10:11:08.448Z,99888.00
2022-09-28T10:13:35.398Z,99883.00
2022-09-28T10:16:01.996Z,99891.00
2022-09-28T10:18:28.627Z,99885.00
2022-09-28T10:20:55.056Z,99882.00
2022-09-28T10:23:23.926Z,99878.00
2022-09-28T10:25:52.464Z,99883.00
2022-09-28T10:28:21.462Z,99884.00
2022-09-28T10:30:48.007Z,99887.00
2022-09-28T10:33:29.325Z,99884.00
2022-09-28T10:35:55.922Z,99885.00
2022-09-28T10:38:22.983Z,99884.00
2022-09-28T10:40:50.978Z,99884.00
2022-09-28T10:43:20.640Z,99882.00
2022-09-28T10:45:47.505Z,99892.00
2022-09-28T10:48:16.785Z,99890.00
2022-09-28T10:50:43.431Z,99891.00
2022-09-28T10:53:20.537Z,99884.00
2022-09-28T10:55:57.820Z,99888.00
2022-09-28T10:58:26.527Z,99895.00
2022-09-28T11:00:53.245Z,99896.00
2022-09-28T11:03:24.156Z,99895.00
2022-09-28T11:06:09.023Z,99885.00
2022-09-28T11:08:40.383Z,99890.00
2022-09-28T11:11:14.834Z,99889.00
2022-09-28T11:13:49.009Z,99893.00
2022-09-28T11:16:35.944Z,99894.00
2022-09-28T11:19:06.842Z,99897.00
2022-09-28T11:21:43.399Z,99900.00
2022-09-28T11:24:19.127Z,99894.00
2022-09-28T11:26:47.966Z,99903.00
2022-09-28T11:29:26.890Z,99900.00
2022-09-28T11:31:53.513Z,99908.00
2022-09-28T11:34:36.546Z,99908.00
2022-09-28T11:37:35.217Z,99910.00
2022-09-28T11:40:13.618Z,99906.00
2022-09-28T11:42:50.998Z,99902.00
2022-09-28T11:45:43.552Z,99905.00
2022-09-28T11:48:19.023Z,99899.00
2022-09-28T11:50:50.469Z,99900.00
2022-09-28T11:53:20.244Z,99894.00
2022-09-28T11:56:00.120Z,99895.00
2022-09-28T11:58:31.101Z,99904.00
2022-09-28T12:01:07.105Z,99906.00
2022-09-28T12:03:41.137Z,99904.00
2022-09-28T12:06:11.548Z,99904.00
2022-09-28T12:08:42.146Z,99910.00
2022-09-28T12:11:15.810Z,99902.00
2022-09-28T12:13:44.694Z,99917.00
2022-09-28T12:17:08.975Z,99909.00
2022-09-28T12:19:40.093Z,99905.00
2022-09-28T12:22:18.219Z,99906.00
2022-09-28T12:24:47.545Z,99908.00
2022-09-28T12:27:16.930Z,99910.00
2022-09-28T12:29:47.642Z,99918.00
2022-09-28T12:32:35.690Z,99905.00
2022-09-28T12:35:02.449Z,99907.00
2022-09-28T12:37:51.462Z,99909.00
2022-09-28T12:40:29.438Z,99909.00
2022-09-28T12:43:04.375Z,99901.00
2022-09-28T12:45:35.557Z,99900.00
2022-09-28T12:48:15.826Z,99897.00
2022-09-28T12:50:53.925Z,99902.00
2022-09-28T12:53:35.619Z,99906.00
2022-09-28T12:56:03.711Z,99899.00
2022-09-28T12:58:50.639Z,99900.00
2022-09-28T13:01:37.084Z,99896.00
2022-09-28T13:04:22.558Z,99894.00
2022-09-28T13:07:07.648Z,99901.00
2022-09-28T13:09:52.463Z,99898.00
2022-09-28T13:12:29.909Z,99894.00
2022-09-28T13:15:08.805Z,99889.00
2022-09-28T13:17:47.517Z,99898.00
2022-09-28T13:20:23.323Z,99888.00
2022-09-28T13:22:56.033Z,99896.00
2022-09-28T13:25:25.432Z,99902.00
2022-09-28T13:27:55.430Z,99904.00
2022-09-28T13:30:22.130Z,99898.00
2022-09-28T13:32:49.856Z,99898.00
2022-09-28T13:35:20.958Z,99892.00
2022-09-28T13:37:48.176Z,99889.00
2022-09-28T13:40:14.898Z,99888.00
2022-09-28T13:42:44.379Z,99888.00
2022-09-28T13:45:10.791Z,99884.00
2022-09-28T13:47:49.981Z,99885.00
2022-09-28T13:50:26.046Z,99892.00
2022-09-28T13:53:01.374Z,99887.00
2022-09-28T13:55:28.267Z,99895.00
2022-09-28T13:58:04.771Z,99892.00
2022-09-28T14:00:47.110Z,99884.00
2022-09-28T14:03:20.723Z,99887.00
2022-09-28T14:05:52.110Z,99885.00
2022-09-28T14:08:57.016Z,99889.00
2022-09-28T14:11:37.621Z,99890.00
2022-09-28T14:14:14.345Z,99890.00
2022-09-28T14:16:41.949Z,99881.00
2022-09-28T14:19:08.406Z,99890.00
2022-09-28T14:21:44.037Z,99889.00
2022-09-28T14:24:33.719Z,99890.00
2022-09-28T14:27:00.148Z,99882.00
2022-09-28T14:29:31.300Z,99886.00
2022-09-28T14:31:59.011Z,99880.00
2022-09-28T14:34:34.300Z,99878.00
2022-09-28T14:37:21.032Z,99880.00
2022-09-28T14:40:06.338Z,99878.00
2022-09-28T14:42:32.858Z,99881.00
2022-09-28T14:45:06.099Z,99876.00
2022-09-28T14:47:37.698Z,99885.00
2022-09-28T14:50:24.085Z,99874.00
2022-09-28T14:52:51.456Z,99878.00
2022-09-28T14:55:19.906Z,99880.00
2022-09-28T14:57:52.134Z,99874.00
2022-09-28T15:00:20.375Z,99878.00
2022-09-28T15:02:48.950Z,99877.00
2022-09-28T15:05:27.771Z,99882.00
2022-09-28T15:07:55.378Z,99877.00
2022-09-28T15:10:28.204Z,99881.00
2022-09-28T15:16:30.251Z,99888.00
2022-09-28T15:19:17.596Z,99888.00
2022-09-28T15:21:47.686Z,99875.00
2022-09-28T15:24:34.000Z,99881.00
2022-09-28T15:27:01.752Z,99891.00
2022-09-28T15:29:31.382Z,99883.00
2022-09-28T15:31:58.510Z,99885.00
2022-09-28T15:34:47.492Z,99887.00
2022-09-28T15:37:15.618Z,99881.00
2022-09-28T15:39:42.292Z,99884.00
2022-09-28T15:42:08.746Z,99884.00
2022-09-28T15:44:37.249Z,99882.00
2022-09-28T15:47:14.089Z,99885.00
2022-09-28T15:49:53.417Z,99887.00
2022-09-28T15:52:42.887Z,99885.00
2022-09-28T15:55:28.325Z,99882.00
2022-09-28T15:58:06.921Z,99882.00
2022-09-28T16:00:33.839Z,99888.00
2022-09-28T16:03:01.876Z,99882.00
2022-09-28T16:05:49.089Z,99887.00
2022-09-28T16:08:24.852Z,99883.00
2022-09-28T16:11:10.935Z,99888.00
2022-09-28T16:14:06.943Z,99885.00
2022-09-28T16:16:36.441Z,99892.00
2022-09-28T16:19:03.596Z,99891.00
2022-09-28T16:21:42.707Z,99894.00
2022-09-28T16:24:19.315Z,99901.00
2022-09-28T16:26:45.884Z,99895.00
2022-09-28T16:29:25.732Z,99893.00
2022-09-28T16:31:53.295Z,99885.00
2022-09-28T16:34:23.535Z,99889.00
2022-09-28T16:36:50.630Z,99886.00
2022-09-28T16:39:17.911Z,99888.00
2022-09-28T16:42:05.059Z,99888.00
2022-09-28T16:44:35.977Z,99890.00
2022-09-28T16:47:02.436Z,99893.00
2022-09-28T16:49:29.666Z,99901.00
2022-09-28T16:51:56.179Z,99902.00
2022-09-28T16:54:42.348Z,99906.00
2022-09-28T16:57:10.931Z,99897.00
2022-09-28T16:59:40.389Z,99895.00
2022-09-28T17:02:46.126Z,99904.00
2022-09-28T17:05:07.504Z,99897.00
2022-09-28T17:07:34.310Z,99904.00
2022-09-28T17:10:00.727Z,99900.00
2022-09-28T17:12:29.205Z,99901.00
2022-09-28T17:14:55.682Z,99895.00
2022-09-28T17:17:22.777Z,99891.00
2022-09-28T17:19:49.291Z,99903.00
2022-09-28T17:22:16.825Z,99911.00
2022-09-28T17:24:45.517Z,99905.00
2022-09-28T17:27:15.576Z,99919.00
2022-09-28T17:29:42.010Z,99911.00
2022-09-28T17:32:12.106Z,99917.00
2022-09-28T17:34:38.574Z,99917.00
2022-09-28T17:37:05.121Z,99911.00
2022-09-28T17:39:31.789Z,99912.00
2022-09-28T17:41:58.243Z,99916.00
2022-09-28T17:44:24.717Z,99908.00
2022-09-28T17:46:52.362Z,99907.00
2022-09-28T17:49:19.365Z,99912.00
2022-09-28T17:51:45.807Z,99903.00
2022-09-28T17:54:13.662Z,99914.00
2022-09-28T17:56:40.168Z,99906.00
2022-09-28T17:59:07.864Z,99911.00
2022-09-28T18:01:37.574Z,99912.00
2022-09-28T18:04:04.997Z,99911.00
2022-09-28T18:06:34.872Z,99906.00
2022-09-28T18:09:03.166Z,99920.00
2022-09-28T18:11:30.050Z,99913.00
2022-09-28T18:13:56.508Z,99913.00
2022-09-28T18:16:23.087Z,99910.00
2022-09-28T18:18:54.007Z,99918.00
2022-09-28T18:21:20.475Z,99912.00
2022-09-28T18:23:46.916Z,99909.00
2022-09-28T18:26:14.792Z,99915.00
2022-09-28T18:28:41.545Z,99909.00
2022-09-28T18:31:08.814Z,99907.00
2022-09-28T18:33:35.489Z,99912.00
2022-09-28T18:36:02.099Z,99908.00
2022-09-28T18:38:28.639Z,99909.00
2022-09-28T18:40:56.432Z,99914.00
2022-09-28T18:43:23.319Z,99910.00
2022-09-28T18:45:49.813Z,99903.00
2022-09-28T18:48:16.288Z,99904.00
2022-09-28T18:50:42.886Z,99907.00
2022-09-28T18:53:15.090Z,99909.00
2022-09-28T18:55:43.779Z,99915.00
2022-09-28T18:58:11.507Z,99920.00
2022-09-28T19:00:42.920Z,99912.00
2022-09-28T19:03:11.297Z,99918.00
2022-09-28T19:05:41.783Z,99921.00
2022-09-28T19:08:08.243Z,99929.00
2022-09-28T19:10:34.644Z,99929.00
2022-09-28T19:13:01.124Z,99934.00
2022-09-28T19:15:27.592Z,99935.00
2022-09-28T19:17:54.199Z,99924.00
2022-09-28T19:20:21.306Z,99931.00
2022-09-28T19:22:50.744Z,99933.00
2022-09-28T19:25:17.279Z,99933.00
2022-09-28T19:27:43.770Z,99928.00
2022-09-28T19:30:10.436Z,99930.00
2022-09-28T19:32:37.156Z,99924.00
2022-09-28T19:35:04.381Z,99926.00
2022-09-28T19:37:33.548Z,99921.00
2022-09-28T19:40:00.140Z,99924.00
2022-09-28T19:42:26.948Z,99921.00
2022-09-28T19:44:53.366Z,99916.00
2022-09-28T19:47:21.709Z,99921.00
2022-09-28T19:49:49.135Z,99930.00
2022-09-28T19:52:16.641Z,99924.00
2022-09-28T19:54:44.637Z,99930.00
2022-09-28T19:57:16.087Z,99940.00
2022-09-28T19:59:42.776Z,99937.00
2022-09-28T20:02:10.257Z,99938.00
2022-09-28T20:04:36.791Z,99942.00
2022-09-28T20:07:03.693Z,99944.00
2022-09-28T20:09:30.177Z,99946.00
2022-09-28T20:11:57.049Z,99940.00
2022-09-28T20:14:25.921Z,99937.00
2022-09-28T20:16:54.743Z,99940.00
2022-09-28T20:19:23.243Z,99947.00
2022-09-28T20:21:49.791Z,99945.00
2022-09-28T20:24:17.250Z,99941.00
2022-09-28T20:26:44.474Z,99948.00
2022-09-28T20:29:11.098Z,99954.00
2022-09-28T20:31:38.014Z,99965.00
2022-09-28T20:34:05.113Z,99969.00
2022-09-28T20:36:40.223Z,99974.00
2022-09-28T20:39:06.679Z,99976.00
2022-09-28T20:41:36.687Z,99975.00
2022-09-28T20:44:05.902Z,99977.00
2022-09-28T20:46:43.803Z,99979.00
2022-09-28T20:49:10.342Z,99965.00
2022-09-28T20:51:40.043Z,99970.00
2022-09-28T20:54:06.591Z,99977.00
2022-09-28T20:56:37.777Z,99977.00
2022-09-28T20:59:05.052Z,99966.00
2022-09-28T21:01:31.913Z,99970.00
2022-09-28T21:04:02.460Z,99956.00
2022-09-28T21:06:30.381Z,99954.00
2022-09-28T21:08:57.045Z,99955.00
2022-09-28T21:11:24.020Z,99956.00
2022-09-28T21:13:54.657Z,99956.00
2022-09-28T21:16:21.291Z,99961.00
2022-09-28T21:18:48.017Z,99962.00
2022-09-28T21:21:15.695Z,99965.00
2022-09-28T21:23:45.050Z,99960.00
2022-09-28T21:26:24.773Z,99966.00
2022-09-28T21:28:51.991Z,99953.00
2022-09-28T21:31:20.560Z,99964.00
2022-09-28T21:33:48.294Z,99962.00
2022-09-28T21:36:14.769Z,99953.00
2022-09-28T21:38:41.303Z,99963.00
2022-09-28T21:41:08.971Z,99974.00
2022-09-28T21:43:35.495Z,99970.00
2022-09-28T21:46:02.001Z,99972.00
2022-09-28T21:48:28.927Z,99968.00
2022-09-28T21:50:59.815Z,99973.00
2022-09-28T21:53:28.037Z,99980.00
2022-09-28T21:55:54.895Z,99976.00
2022-09-28T21:58:23.231Z,99986.00
2022-09-28T22:00:58.287Z,99976.00
2022-09-28T22:03:25.800Z,99989.00
2022-09-28T22:05:52.456Z,99990.00
2022-09-28T22:08:19.664Z,99988.00
2022-09-28T22:10:46.810Z,99980.00
2022-09-28T22:13:13.203Z,99980.00
2022-09-28T22:15:39.670Z,99977.00
2022-09-28T22:18:06.243Z,99978.00
2022-09-28T22:20:32.651Z,99977.00
2022-09-28T22:22:59.173Z,99982.00
2022-09-28T22:25:25.574Z,99984.00
2022-09-28T22:27:52.005Z,99980.00
2022-09-28T22:30:18.591Z,99977.00
2022-09-28T22:32:45.049Z,99977.00
2022-09-28T22:35:11.607Z,99979.00
2022-09-28T22:37:38.341Z,99977.00
2022-09-28T22:40:05.234Z,99972.00
2022-09-28T22:42:32.635Z,99974.00
2022-09-28T22:44:59.239Z,99976.00
2022-09-28T22:47:25.672Z,99968.00
2022-09-28T22:49:52.142Z,99973.00
2022-09-28T22:52:18.680Z,99973.00
2022-09-28T22:54:46.179Z,99969.00
2022-09-28T22:57:12.896Z,99968.00
2022-09-28T22:59:39.349Z,99966.00
2022-09-28T23:02:05.950Z,99968.00
2022-09-28T23:04:32.412Z,99969.00
2022-09-28T23:06:58.898Z,99970.00
2022-09-28T23:09:25.355Z,99967.00
2022-09-28T23:11:51.808Z,99968.00
2022-09-28T23:14:18.260Z,99972.00
2022-09-28T23:16:44.707Z,99965.00
2022-09-28T23:19:11.214Z,99965.00
2022-09-28T23:21:38.052Z,99968.00
2022-09-28T23:24:04.498Z,99968.00
2022-09-28T23:26:32.222Z,99970.00
2022-09-28T23:28:59.528Z,99972.00
2022-09-28T23:31:28.130Z,99970.00
2022-09-28T23:33:58.826Z,99979.00
2022-09-28T23:36:25.615Z,99983.00
2022-09-28T23:38:52.100Z,99981.00
2022-09-28T23:41:20.640Z,99974.00
2022-09-28T23:43:47.095Z,99974.00
2022-09-28T23:46:17.253Z,99970.00
2022-09-28T23:48:46.865Z,99970.00
2022-09-28T23:51:13.288Z,99972.00
2022-09-28T23:53:39.906Z,99977.00
2022-09-28T23:56:06.395Z,99980.00
2022-09-28T23:58:32.806Z,99980.00
